Terminal Aerodrome Forecast
Issued by NWS Wilmington, OH

Home | Current Version | Previous Version | Text Only | Print | Product List | Glossary On
Versions: 1 2 3 4 5 6 7 8 9 10 11 12 13 14 15 16 17 18 19 20 21 22 23 24 25 26 27 28
000
FTUS41 KILN 011100 RRA
TAFCVG
TAF
KCVG 011142Z 0112/0218 17005KT 4SM -SN SCT025 OVC040
      TEMPO 0113/0115 -FZRAPL BKN025
     FM011500 20005KT 5SM -RA OVC015
     FM011900 24006KT 5SM -RA OVC015
     FM012200 28006KT 3SM -SN OVC012
      TEMPO 0200/0204 1SM -SN OVC009
     FM020400 31009KT P6SM OVC012=

USA.gov is the U.S. government's official web portal to all federal, state and local government web resources and services.